KFOK/FOK METAR and TAF weather

Enter ICAO airport designator
Station Type Date Time Source
KFOK METAR 2020/07/15 03:53 UTC NOAA

KFOK 150353Z AUTO 00000KT 10SM CLR 18/18 A3008 RMK AO2 SLP184 T01830183


Station Type Date Time Source
KFOK Decoded METAR 2020/07/15 03:53 UTC NOAA

THE GABRESKI AIRPORT, NY, United States (KFOK) 40-51N 072-37W 33M
Jul 14, 2020 - 11:53 PM EDT / 2020.07.15 0353 UTC
Wind: Calm:0
Visibility: 10 mile(s):0
Sky conditions: clear
Temperature: 64.9 F (18.3 C)
Dew Point: 64.9 F (18.3 C)
Relative Humidity: 100%
Pressure (altimeter): 30.08 in. Hg (1018 hPa)
ob: KFOK 150353Z AUTO 00000KT 10SM CLR 18/18 A3008 RMK AO2 SLP184 T01830183
cycle: 4

Station Type Date Time Source
KFOK TAF UTC NOAA

Error!

Example: see airport list